createdAt,value
2022-09-17T00:01:07.406Z,99176.28
2022-09-17T00:03:34.461Z,99176.28
2022-09-17T00:06:03.511Z,99178.91
2022-09-17T00:08:30.728Z,99173.50
2022-09-17T00:10:57.264Z,99174.34
2022-09-17T00:13:24.751Z,99185.66
2022-09-17T00:15:52.560Z,99182.03
2022-09-17T00:18:19.236Z,99191.69
2022-09-17T00:20:47.340Z,99192.50
2022-09-17T00:23:15.021Z,99188.88
2022-09-17T00:25:43.596Z,99188.88
2022-09-17T00:28:10.889Z,99187.06
2022-09-17T00:30:41.067Z,99190.69
2022-09-17T00:40:41.763Z,99194.31
2022-09-17T00:43:12.462Z,99197.47
2022-09-17T00:45:40.026Z,99203.00
2022-09-17T00:48:07.286Z,99201.44
2022-09-17T00:50:40.384Z,99208.22
2022-09-17T00:53:11.273Z,99207.38
2022-09-17T00:55:45.497Z,99206.66
2022-09-17T00:58:14.576Z,99199.66
2022-09-17T01:00:42.080Z,99213.19
2022-09-17T01:03:12.391Z,99217.84
2022-09-17T01:05:47.334Z,99208.59
2022-09-17T01:12:27.800Z,99218.72
2022-09-17T01:15:12.322Z,99207.44
2022-09-17T01:18:19.145Z,99211.53
2022-09-17T01:21:20.886Z,99202.88
2022-09-17T01:24:34.327Z,99195.88
2022-09-17T01:27:16.907Z,99200.22
2022-09-17T01:30:01.381Z,99203.81
2022-09-17T01:32:46.151Z,99206.22
2022-09-17T01:35:20.541Z,99215.41
2022-09-17T01:38:11.593Z,99214.31
2022-09-17T01:40:53.672Z,99215.63
2022-09-17T01:43:34.597Z,99213.59
2022-09-17T01:46:21.180Z,99217.63
2022-09-17T01:48:51.981Z,99219.56
2022-09-17T01:51:26.467Z,99229.78
2022-09-17T01:54:04.889Z,99220.41
2022-09-17T01:56:38.498Z,99223.28
2022-09-17T01:59:14.209Z,99229.06
2022-09-17T02:01:43.848Z,99229.28
2022-09-17T02:04:44.504Z,99228.28
2022-09-17T02:07:20.446Z,99236.19
2022-09-17T02:09:55.339Z,99230.44
2022-09-17T02:12:28.553Z,99233.34
2022-09-17T02:14:59.124Z,99222.25
2022-09-17T02:17:29.285Z,99227.91
2022-09-17T02:19:56.645Z,99225.38
2022-09-17T02:22:29.015Z,99219.59
2022-09-17T02:25:07.222Z,99230.16
2022-09-17T02:27:52.239Z,99226.28
2022-09-17T02:30:18.880Z,99220.03
2022-09-17T02:32:46.450Z,99220.28
2022-09-17T02:35:14.404Z,99214.38
2022-09-17T02:37:47.258Z,99217.38
2022-09-17T02:40:16.288Z,99220.00
2022-09-17T02:43:13.743Z,99224.16
2022-09-17T02:46:04.070Z,99228.63
2022-09-17T02:48:39.453Z,99235.91
2022-09-17T02:51:18.853Z,99232.56
2022-09-17T02:54:10.171Z,99232.97
2022-09-17T02:56:43.326Z,99241.75
2022-09-17T02:59:19.905Z,99238.50
2022-09-17T03:01:59.347Z,99240.31
2022-09-17T03:04:29.429Z,99243.91
2022-09-17T03:06:56.695Z,99237.97
2022-09-17T03:09:23.204Z,99242.53
2022-09-17T03:11:49.784Z,99240.97
2022-09-17T03:14:16.442Z,99247.22
2022-09-17T03:16:42.974Z,99246.47
2022-09-17T03:19:09.432Z,99242.25
2022-09-17T03:21:35.940Z,99237.09
2022-09-17T03:24:02.693Z,99248.59
2022-09-17T03:26:29.165Z,99238.16
2022-09-17T03:28:55.737Z,99244.38
2022-09-17T03:31:22.316Z,99243.66
2022-09-17T03:33:50.168Z,99246.28
2022-09-17T03:36:16.714Z,99247.25
2022-09-17T03:38:43.172Z,99250.00
2022-09-17T03:41:09.751Z,99252.63
2022-09-17T03:43:36.339Z,99253.59
2022-09-17T03:46:02.988Z,99261.59
2022-09-17T03:48:30.336Z,99252.00
2022-09-17T03:50:56.893Z,99257.28
2022-09-17T03:53:23.765Z,99257.41
2022-09-17T03:55:50.625Z,99259.19
2022-09-17T03:58:17.207Z,99255.63
2022-09-17T04:00:44.043Z,99256.44
2022-09-17T04:03:10.762Z,99262.56
2022-09-17T04:05:37.472Z,99263.28
2022-09-17T04:08:04.013Z,99265.00
2022-09-17T04:10:30.473Z,99258.75
2022-09-17T04:12:56.956Z,99267.63
2022-09-17T04:15:23.410Z,99267.75
2022-09-17T04:17:49.906Z,99268.69
2022-09-17T04:20:16.362Z,99266.28
2022-09-17T04:22:42.922Z,99277.03
2022-09-17T04:25:11.162Z,99278.84
2022-09-17T04:27:37.650Z,99274.56
2022-09-17T04:30:04.574Z,99274.72
2022-09-17T04:32:31.161Z,99274.72
2022-09-17T04:34:57.662Z,99281.88
2022-09-17T04:37:25.896Z,99275.88
2022-09-17T04:39:52.702Z,99270.59
2022-09-17T04:42:19.286Z,99283.78
2022-09-17T04:44:45.889Z,99284.50
2022-09-17T04:47:12.430Z,99280.09
2022-09-17T04:49:38.958Z,99276.50
2022-09-17T04:52:05.476Z,99279.97
2022-09-17T04:54:32.109Z,99277.44
2022-09-17T04:56:59.599Z,99276.69
2022-09-17T04:59:26.105Z,99276.81
2022-09-17T05:01:52.654Z,99277.75
2022-09-17T05:04:19.179Z,99276.94
2022-09-17T05:06:45.779Z,99277.75
2022-09-17T05:09:12.299Z,99275.22
2022-09-17T05:11:38.840Z,99274.31
2022-09-17T05:14:05.386Z,99284.72
2022-09-17T05:16:31.869Z,99282.06
2022-09-17T05:18:58.457Z,99279.44
2022-09-17T05:21:25.227Z,99286.53
2022-09-17T05:23:51.931Z,99292.75
2022-09-17T05:26:18.384Z,99301.59
2022-09-17T05:28:44.933Z,99289.38
2022-09-17T05:31:11.454Z,99298.97
2022-09-17T05:33:37.992Z,99292.88
2022-09-17T05:36:04.968Z,99300.78
2022-09-17T05:38:31.575Z,99299.94
2022-09-17T05:40:58.028Z,99298.97
2022-09-17T05:43:24.532Z,99307.63
2022-09-17T05:45:51.078Z,99304.03
2022-09-17T05:48:17.576Z,99295.91
2022-09-17T05:50:44.052Z,99308.03
2022-09-17T05:53:12.749Z,99306.22
2022-09-17T05:55:39.691Z,99300.78
2022-09-17T05:58:13.847Z,99306.06
2022-09-17T06:00:41.207Z,99303.94
2022-09-17T06:03:10.706Z,99310.78
2022-09-17T06:05:37.325Z,99319.34
2022-09-17T06:08:04.035Z,99322.81
2022-09-17T06:10:30.494Z,99327.25
2022-09-17T06:13:00.410Z,99335.06
2022-09-17T06:15:28.031Z,99329.91
2022-09-17T06:17:54.761Z,99337.81
2022-09-17T06:20:21.351Z,99337.81
2022-09-17T06:22:47.831Z,99339.59
2022-09-17T06:25:15.125Z,99341.41
2022-09-17T06:27:41.647Z,99345.72
2022-09-17T06:30:08.462Z,99342.22
2022-09-17T06:32:34.949Z,99342.13
2022-09-17T06:35:01.553Z,99351.72
2022-09-17T06:37:30.294Z,99349.84
2022-09-17T06:39:57.690Z,99355.84
2022-09-17T06:42:24.218Z,99358.25
2022-09-17T06:44:50.707Z,99352.66
2022-09-17T06:47:17.367Z,99354.13
2022-09-17T06:49:43.888Z,99359.06
2022-09-17T06:52:10.854Z,99354.31
2022-09-17T06:54:37.443Z,99350.59
2022-09-17T06:57:04.241Z,99349.44
2022-09-17T06:59:30.711Z,99344.91
2022-09-17T07:01:57.847Z,99348.25
2022-09-17T07:04:24.406Z,99346.47
2022-09-17T07:06:50.876Z,99346.38
2022-09-17T07:09:17.411Z,99355.00
2022-09-17T07:11:43.865Z,99357.44
2022-09-17T07:14:10.383Z,99351.09
2022-09-17T07:16:37.046Z,99347.38
2022-09-17T07:19:04.777Z,99356.88
2022-09-17T07:21:31.568Z,99350.41
2022-09-17T07:23:58.711Z,99356.19
2022-09-17T07:26:25.292Z,99360.31
2022-09-17T07:28:51.800Z,99366.09
2022-09-17T07:31:18.322Z,99368.28
2022-09-17T07:33:45.547Z,99360.88
2022-09-17T07:36:15.009Z,99362.09
2022-09-17T07:38:41.538Z,99359.00
2022-09-17T07:41:14.375Z,99357.81
2022-09-17T07:43:41.884Z,99354.59
2022-09-17T07:46:14.189Z,99353.28
2022-09-17T07:48:40.985Z,99349.00
2022-09-17T07:51:07.508Z,99355.41
2022-09-17T07:53:34.358Z,99360.97
2022-09-17T07:56:01.230Z,99357.59
2022-09-17T07:58:36.694Z,99355.34
2022-09-17T08:01:08.826Z,99371.47
2022-09-17T08:03:36.579Z,99369.06
2022-09-17T08:06:12.046Z,99360.28
2022-09-17T08:08:39.566Z,99361.88
2022-09-17T08:11:08.523Z,99355.59
2022-09-17T08:13:35.730Z,99361.88
2022-09-17T08:16:05.375Z,99360.91
2022-09-17T08:18:32.628Z,99368.84
2022-09-17T08:21:00.896Z,99367.88
2022-09-17T08:23:28.286Z,99360.63
2022-09-17T08:25:55.776Z,99367.53
2022-09-17T08:28:25.383Z,99358.50
2022-09-17T08:30:52.783Z,99363.53
2022-09-17T08:33:20.478Z,99358.00
2022-09-17T08:35:54.832Z,99358.00
2022-09-17T08:38:21.529Z,99354.91
2022-09-17T08:41:00.800Z,99350.53
2022-09-17T08:43:28.879Z,99362.34
2022-09-17T08:45:55.886Z,99360.16
2022-09-17T08:48:23.745Z,99366.03
2022-09-17T08:50:51.204Z,99360.41
2022-09-17T08:53:34.592Z,99358.59
2022-09-17T08:56:12.839Z,99364.25
2022-09-17T08:59:05.979Z,99368.94
2022-09-17T09:01:57.379Z,99361.84
2022-09-17T09:05:10.224Z,99366.03
2022-09-17T09:07:43.620Z,99370.84
2022-09-17T09:10:18.886Z,99363.63
2022-09-17T09:12:46.010Z,99372.03
2022-09-17T09:15:33.359Z,99359.50
2022-09-17T09:18:09.484Z,99369.25
2022-09-17T09:20:53.518Z,99366.94
2022-09-17T09:23:20.059Z,99368.72
2022-09-17T09:26:16.087Z,99355.78
2022-09-17T09:28:50.815Z,99367.91
2022-09-17T09:31:29.262Z,99375.84
2022-09-17T09:33:56.508Z,99380.81
2022-09-17T09:36:22.994Z,99372.69
2022-09-17T09:38:58.003Z,99365.59
2022-09-17T09:41:40.272Z,99365.78
2022-09-17T09:44:12.247Z,99361.38
2022-09-17T09:47:00.690Z,99366.34
2022-09-17T09:49:46.297Z,99359.66
2022-09-17T09:52:51.219Z,99347.50
2022-09-17T09:55:44.017Z,99382.63
2022-09-17T09:58:41.179Z,99375.97
2022-09-17T10:01:16.666Z,99360.16
2022-09-17T10:03:46.252Z,99363.50
2022-09-17T10:06:14.738Z,99364.41
2022-09-17T10:08:50.826Z,99361.03
2022-09-17T10:11:21.988Z,99369.69
2022-09-17T10:13:48.501Z,99357.38
2022-09-17T10:16:22.126Z,99360.59
2022-09-17T10:18:51.321Z,99360.22
2022-09-17T10:21:32.603Z,99358.41
2022-09-17T10:24:01.455Z,99362.06
2022-09-17T10:26:37.622Z,99363.63
2022-09-17T10:29:16.499Z,99368.25
2022-09-17T10:31:54.088Z,99361.44
2022-09-17T10:34:26.799Z,99349.88
2022-09-17T10:36:56.110Z,99375.47
2022-09-17T10:39:28.512Z,99368.53
2022-09-17T10:41:57.064Z,99365.88
2022-09-17T10:44:25.741Z,99360.72
2022-09-17T10:46:52.936Z,99352.88
2022-09-17T10:49:37.684Z,99354.03
2022-09-17T10:52:17.814Z,99347.75
2022-09-17T10:55:05.535Z,99347.47
2022-09-17T10:58:05.297Z,99344.41
2022-09-17T11:00:38.459Z,99339.03
2022-09-17T11:03:35.714Z,99334.66
2022-09-17T11:06:12.236Z,99338.75
2022-09-17T11:08:43.806Z,99330.19
2022-09-17T11:11:32.359Z,99333.38
2022-09-17T11:14:28.021Z,99313.47
2022-09-17T11:17:08.088Z,99317.22
2022-09-17T11:20:00.059Z,99315.56
2022-09-17T11:22:44.423Z,99319.13
2022-09-17T11:25:16.939Z,99322.47
2022-09-17T11:28:04.671Z,99323.88
2022-09-17T11:31:02.145Z,99313.09
2022-09-17T11:33:37.961Z,99312.13
2022-09-17T11:36:20.359Z,99311.97
2022-09-17T11:38:53.282Z,99311.56
2022-09-17T11:41:40.293Z,99315.66
2022-09-17T11:44:24.419Z,99314.81
2022-09-17T11:47:06.117Z,99322.31
2022-09-17T11:49:39.382Z,99328.38
2022-09-17T11:52:14.630Z,99340.03
2022-09-17T11:54:50.977Z,99339.53
2022-09-17T11:57:21.295Z,99339.00
2022-09-17T12:00:03.167Z,99334.88
2022-09-17T12:02:54.270Z,99331.66
2022-09-17T12:05:26.941Z,99328.19
2022-09-17T12:07:59.374Z,99313.69
2022-09-17T12:10:31.972Z,99324.88
2022-09-17T12:13:19.002Z,99323.50
2022-09-17T12:15:53.337Z,99308.06
2022-09-17T12:18:33.438Z,99316.81
2022-09-17T12:21:04.666Z,99322.56
2022-09-17T12:23:38.760Z,99320.09
2022-09-17T12:26:08.490Z,99311.66
2022-09-17T12:29:08.663Z,99315.31
2022-09-17T12:31:55.396Z,99311.28
2022-09-17T12:34:40.363Z,99321.88
2022-09-17T12:37:23.763Z,99341.34
2022-09-17T12:40:02.550Z,99356.13
2022-09-17T12:42:45.205Z,99330.63
2022-09-17T12:45:34.127Z,99325.16
2022-09-17T12:48:32.041Z,99335.69
2022-09-17T12:51:09.165Z,99343.50
2022-09-17T12:53:42.531Z,99343.50
2022-09-17T12:56:14.866Z,99320.56
2022-09-17T12:59:10.265Z,99319.28
2022-09-17T13:01:42.907Z,99314.97
2022-09-17T13:04:59.412Z,99318.47
2022-09-17T13:07:59.607Z,99315.53
2022-09-17T13:11:03.489Z,99312.75
2022-09-17T13:13:41.962Z,99297.75
2022-09-17T13:16:22.332Z,99292.06
2022-09-17T13:19:16.228Z,99280.44
2022-09-17T13:21:56.821Z,99292.13
2022-09-17T13:24:27.120Z,99285.66
2022-09-17T13:26:55.789Z,99293.28
2022-09-17T13:29:44.734Z,99274.78
2022-09-17T13:32:49.988Z,99285.91
2022-09-17T13:35:16.394Z,99295.47
2022-09-17T13:37:58.612Z,99286.22
2022-09-17T13:40:29.491Z,99294.78
2022-09-17T13:43:08.981Z,99289.13
2022-09-17T13:45:58.768Z,99298.84
2022-09-17T13:48:29.738Z,99295.22
2022-09-17T13:50:56.565Z,99297.97
2022-09-17T13:53:27.009Z,99293.91
2022-09-17T13:56:04.524Z,99297.25
2022-09-17T13:58:33.573Z,99297.13
2022-09-17T14:01:01.189Z,99297.50
2022-09-17T14:03:44.611Z,99295.69
2022-09-17T14:06:11.318Z,99297.41
2022-09-17T14:08:43.538Z,99298.66
2022-09-17T14:11:32.490Z,99308.69
2022-09-17T14:14:05.167Z,99293.34
2022-09-17T14:16:38.025Z,99292.56
2022-09-17T14:19:16.970Z,99292.56
2022-09-17T14:22:22.505Z,99285.91
2022-09-17T14:24:54.413Z,99301.25
2022-09-17T14:27:50.228Z,99289.97
2022-09-17T14:30:44.080Z,99299.75
2022-09-17T14:33:22.568Z,99319.28
2022-09-17T14:36:16.628Z,99295.59
2022-09-17T14:38:52.804Z,99287.91
2022-09-17T14:41:25.747Z,99300.53
2022-09-17T14:44:04.437Z,99299.81
2022-09-17T14:46:38.619Z,99302.81
2022-09-17T14:49:20.180Z,99299.06
2022-09-17T14:51:46.973Z,99311.56
2022-09-17T14:54:22.684Z,99313.25
2022-09-17T14:56:58.867Z,99309.22
2022-09-17T14:59:32.588Z,99320.84
2022-09-17T15:01:59.629Z,99326.16
2022-09-17T15:04:28.186Z,99313.03
2022-09-17T15:07:09.370Z,99310.03
2022-09-17T15:09:36.133Z,99306.38
2022-09-17T15:12:04.529Z,99301.78
2022-09-17T15:14:36.705Z,99311.94
2022-09-17T15:17:04.762Z,99298.94
2022-09-17T15:19:44.686Z,99303.97
2022-09-17T15:22:14.375Z,99315.22
2022-09-17T15:25:05.809Z,99305.00
2022-09-17T15:27:40.414Z,99303.78
2022-09-17T15:30:20.403Z,99312.44
2022-09-17T15:32:56.643Z,99305.16
2022-09-17T15:35:32.053Z,99307.06
2022-09-17T15:38:22.128Z,99298.69
2022-09-17T15:40:49.849Z,99309.91
2022-09-17T15:43:28.361Z,99293.31
2022-09-17T15:45:56.014Z,99294.09
2022-09-17T15:48:28.513Z,99298.53
2022-09-17T15:50:57.794Z,99306.56
2022-09-17T15:53:27.022Z,99299.97
2022-09-17T15:56:02.636Z,99301.81
2022-09-17T15:58:30.410Z,99307.03
2022-09-17T16:01:15.712Z,99305.09
2022-09-17T16:03:43.463Z,99304.38
2022-09-17T16:06:18.986Z,99313.50
2022-09-17T16:08:47.725Z,99308.22
2022-09-17T16:11:14.926Z,99321.88
2022-09-17T16:13:42.041Z,99322.94
2022-09-17T16:16:15.957Z,99336.47
2022-09-17T16:18:42.841Z,99339.72
2022-09-17T16:21:13.907Z,99342.97
2022-09-17T16:23:40.948Z,99347.63
2022-09-17T16:26:14.056Z,99342.94
2022-09-17T16:28:40.449Z,99344.06
2022-09-17T16:31:06.999Z,99344.50
2022-09-17T16:33:33.526Z,99345.66
2022-09-17T16:35:59.973Z,99353.63
2022-09-17T16:38:26.503Z,99355.44
2022-09-17T16:40:53.004Z,99348.03
2022-09-17T16:43:19.481Z,99346.09
2022-09-17T16:46:01.854Z,99361.28
2022-09-17T16:48:28.435Z,99349.25
2022-09-17T16:50:55.315Z,99356.25
2022-09-17T16:53:21.893Z,99358.75
2022-09-17T16:55:48.428Z,99368.25
2022-09-17T16:58:15.064Z,99367.94
2022-09-17T17:00:45.148Z,99369.47
2022-09-17T17:03:13.644Z,99366.09
2022-09-17T17:05:40.655Z,99364.56
2022-09-17T17:08:08.998Z,99383.59
2022-09-17T17:10:38.256Z,99372.50
2022-09-17T17:13:05.303Z,99383.53
2022-09-17T17:15:32.117Z,99385.88
2022-09-17T17:17:59.040Z,99392.69
2022-09-17T17:20:25.506Z,99394.19
2022-09-17T17:22:52.345Z,99385.09
2022-09-17T17:25:19.318Z,99383.94
2022-09-17T17:27:45.816Z,99377.44
2022-09-17T17:30:17.503Z,99380.63
2022-09-17T17:32:49.142Z,99389.09
2022-09-17T17:35:15.758Z,99392.16
2022-09-17T17:37:42.675Z,99394.34
2022-09-17T17:40:10.363Z,99395.69
2022-09-17T17:42:43.882Z,99397.06
2022-09-17T17:45:10.770Z,99404.69
2022-09-17T17:47:37.268Z,99408.81
2022-09-17T17:50:04.413Z,99406.69
2022-09-17T17:52:31.862Z,99407.19
2022-09-17T17:54:58.522Z,99405.03
2022-09-17T17:57:25.222Z,99410.84
2022-09-17T17:59:51.695Z,99408.69
2022-09-17T18:02:18.240Z,99409.91
2022-09-17T18:04:44.832Z,99416.41
2022-09-17T18:07:11.283Z,99425.59
2022-09-17T18:09:37.767Z,99423.22
2022-09-17T18:12:04.522Z,99426.94
2022-09-17T18:14:31.011Z,99434.28
2022-09-17T18:16:57.495Z,99430.19
2022-09-17T18:19:23.991Z,99434.91
2022-09-17T18:21:50.562Z,99438.84
2022-09-17T18:24:17.112Z,99446.22
2022-09-17T18:26:43.612Z,99443.69
2022-09-17T18:29:11.766Z,99456.34
2022-09-17T18:31:38.861Z,99453.81
2022-09-17T18:34:08.320Z,99457.53
2022-09-17T18:36:36.298Z,99466.31
2022-09-17T18:41:52.677Z,99466.31
2022-09-17T18:44:21.852Z,99466.19
2022-09-17T18:46:50.217Z,99471.38
2022-09-17T18:49:17.257Z,99466.06
2022-09-17T18:51:43.982Z,99470.41
2022-09-17T18:54:12.760Z,99473.91
2022-09-17T18:56:41.705Z,99476.69
2022-09-17T18:59:09.828Z,99472.34
2022-09-17T19:01:36.517Z,99472.34
2022-09-17T19:04:03.907Z,99473.56
2022-09-17T19:06:32.191Z,99482.31
2022-09-17T19:09:00.703Z,99479.09
2022-09-17T19:11:27.550Z,99487.25
2022-09-17T19:13:54.312Z,99477.03
2022-09-17T19:16:20.943Z,99485.44
2022-09-17T19:18:47.476Z,99485.94
2022-09-17T19:21:16.177Z,99481.13
2022-09-17T19:23:44.828Z,99482.44
2022-09-17T19:26:14.455Z,99480.25
2022-09-17T19:28:41.168Z,99476.88
2022-09-17T19:31:10.333Z,99483.38
2022-09-17T19:33:37.027Z,99480.13
2022-09-17T19:36:07.220Z,99483.81
2022-09-17T19:38:33.834Z,99487.44
2022-09-17T19:41:03.407Z,99491.06
2022-09-17T19:43:30.729Z,99506.81
2022-09-17T19:46:05.468Z,99507.63
2022-09-17T19:48:32.461Z,99512.50
2022-09-17T19:50:58.957Z,99511.41
2022-09-17T19:53:25.540Z,99505.16
2022-09-17T19:55:52.088Z,99498.78
2022-09-17T19:58:18.570Z,99490.84
2022-09-17T20:00:45.175Z,99490.22
2022-09-17T20:03:11.780Z,99488.66
2022-09-17T20:05:39.010Z,99492.50
2022-09-17T20:08:05.595Z,99493.69
2022-09-17T20:10:37.031Z,99500.19
2022-09-17T20:13:03.988Z,99504.88
2022-09-17T20:15:34.644Z,99501.69
2022-09-17T20:18:01.677Z,99501.84
2022-09-17T20:20:28.775Z,99505.56
2022-09-17T20:22:56.069Z,99492.56
2022-09-17T20:25:24.163Z,99486.53
2022-09-17T20:27:50.610Z,99490.13
2022-09-17T20:30:17.094Z,99491.94
2022-09-17T20:32:43.616Z,99490.34
2022-09-17T20:35:10.117Z,99495.78
2022-09-17T20:38:32.973Z,99495.91
2022-09-17T20:40:23.118Z,99499.63
2022-09-17T20:42:49.889Z,99498.16
2022-09-17T20:45:16.419Z,99503.66
2022-09-17T20:47:43.905Z,99499.56
2022-09-17T20:50:10.493Z,99503.28
2022-09-17T20:52:36.942Z,99497.38
2022-09-17T20:55:03.879Z,99498.56
2022-09-17T20:57:31.534Z,99497.78
2022-09-17T21:00:00.836Z,99506.91
2022-09-17T21:02:27.713Z,99503.66
2022-09-17T21:04:54.236Z,99497.72
2022-09-17T21:07:20.841Z,99499.75
2022-09-17T21:09:47.803Z,99496.50
2022-09-17T21:12:14.261Z,99503.69
2022-09-17T21:14:40.767Z,99505.59
2022-09-17T21:17:07.364Z,99506.78
2022-09-17T21:19:33.868Z,99503.53
2022-09-17T21:22:00.365Z,99505.53
2022-09-17T21:24:26.897Z,99506.69
2022-09-17T21:26:54.147Z,99509.69
2022-09-17T21:29:20.883Z,99514.22
2022-09-17T21:31:47.651Z,99514.31
2022-09-17T21:34:14.987Z,99511.78
2022-09-17T21:36:44.461Z,99521.53
2022-09-17T21:39:16.675Z,99520.66
2022-09-17T21:41:44.683Z,99507.25
2022-09-17T21:44:12.185Z,99511.69
2022-09-17T21:46:39.727Z,99509.88
2022-09-17T21:49:06.613Z,99509.03
2022-09-17T21:51:37.169Z,99497.66
2022-09-17T21:54:09.145Z,99502.06
2022-09-17T21:56:36.169Z,99510.84
2022-09-17T21:59:05.448Z,99505.66
2022-09-17T22:01:39.925Z,99510.00
2022-09-17T22:04:13.100Z,99515.28
2022-09-17T22:06:40.561Z,99528.50
2022-09-17T22:09:12.233Z,99531.13
2022-09-17T22:11:38.758Z,99527.53
2022-09-17T22:14:14.003Z,99528.50
2022-09-17T22:16:43.538Z,99516.75
2022-09-17T22:19:11.847Z,99521.94
2022-09-17T22:21:41.204Z,99520.97
2022-09-17T22:24:09.519Z,99523.50
2022-09-17T22:26:39.387Z,99519.91
2022-09-17T22:29:09.494Z,99523.41
2022-09-17T22:31:36.194Z,99511.88
2022-09-17T22:34:06.751Z,99510.91
2022-09-17T22:36:33.231Z,99513.44
2022-09-17T22:38:59.767Z,99506.47
2022-09-17T22:41:32.098Z,99503.84
2022-09-17T22:44:00.039Z,99508.81
2022-09-17T22:46:34.176Z,99505.31
2022-09-17T22:49:01.056Z,99503.28
2022-09-17T22:51:28.947Z,99500.53
2022-09-17T22:53:56.373Z,99510.88
2022-09-17T22:56:23.477Z,99508.03
2022-09-17T22:58:50.520Z,99516.69
2022-09-17T23:01:19.964Z,99514.91
2022-09-17T23:03:48.836Z,99521.75
2022-09-17T23:06:18.347Z,99520.78
2022-09-17T23:08:44.958Z,99512.75
2022-09-17T23:11:27.649Z,99501.56
2022-09-17T23:13:57.741Z,99499.53
2022-09-17T23:16:25.150Z,99499.53
2022-09-17T23:18:52.012Z,99497.00
2022-09-17T23:21:20.787Z,99505.88
2022-09-17T23:23:50.390Z,99497.31
2022-09-17T23:26:22.757Z,99500.22
2022-09-17T23:28:49.940Z,99505.59
2022-09-17T23:31:27.184Z,99500.88
2022-09-17T23:33:55.031Z,99506.28
2022-09-17T23:36:27.728Z,99503.34
2022-09-17T23:38:55.506Z,99510.50
2022-09-17T23:41:28.036Z,99508.41
2022-09-17T23:43:57.173Z,99511.38
2022-09-17T23:46:25.714Z,99505.59
2022-09-17T23:48:53.636Z,99508.56
2022-09-17T23:51:21.877Z,99506.22
2022-09-17T23:53:48.576Z,99505.63
2022-09-17T23:56:18.860Z,99508.56
2022-09-17T23:58:45.620Z,99510.47
